Gaylord, MI (49735)

11:04 PM EDT on August 28, 2015 (GMT -0400)
Castlewood Drive | | Change Station
CLOSE
Current Station
Personal Weather Station
Location: Gaylord, MI
Elevation: 1315 ft
Nearby Weather Stations

Elev 1315 ft 44.99 °N, 84.66 °W | Updated 1 second ago

Partly Cloudy
Partly Cloudy
61.8 °F
Feels Like 61.8 °F
N
0.0
Wind Variable Wind from ENE
Gusts 0.0 mph

Today
High -- | Low -- °F
--% Chance of Precip.
Yesterday
High -- | Low -- °F
Precip. -- in
6:55 AM 8:23 PM
Waxing Gibbous, 99% visible
Pressure 30.11 in
Visibility 10.0 miles
Clouds Clear
Dew Point 58 °F
Humidity 89%
Rainfall 0.00 in
Snow Depth Not available.
UV 0.0 out of 12
Pollen 10.10 out of 12
Air Quality Not available.
Flu Activity Not available.
METAR KGLR 290253Z AUTO 22006KT 10SM CLR 17/15 A3011 RMK AO2 SLP194 T01720150 51009
Pressure 30.11 in
Visibility 10.0 miles
Clouds Clear
Dew Point 58 °F
Humidity 89%
Rainfall 0.00 in
Snow Depth Not available.
UV 0.0 out of 12
Pollen 10.10 out of 12
Air Quality Not available.
Flu Activity Not available.
METAR KGLR 290253Z AUTO 22006KT 10SM CLR 17/15 A3011 RMK AO2 SLP194 T01720150 51009
Nowcast | as of 11:00 PM EDT on August 28, 2015

At 12 am...mostly cloudy. Chance of rain. Temperature 63. Southwest winds 6 mph. At 2 am...rain. Temperature 62. Southwest winds 7 mph. At 4 am...rain. Temperature 61. Southwest winds 6 mph. At 6 am...rain. Temperature 61. Southwest winds 6 mph.

×

10-Day Weather Forecast

×

Almanac

Astronomy

Aug. 28, 2015 Rise Set
Actual Time
Civil Twilight
Nautical Twilight
Astronomical Twilight
Moon
Length of Visible Light
Length of Day
Tomorrow will be .
, % of the Moon is Illuminated

Today's Extremes

State Highs State Lows

Community

WunderPhotos

Upload Photos

1,850,593 photos uploaded!

WunderBlogs® & News

Nearby

Air Quality

  Air Quality AQ Index Pollutant
Not available.

Snow Depth

Station Depth Elevation

Earthquake Activity

City Distance Mag. Time & Date
Minimum magnitude displayed is 2.5.

Coastal Water Temperatures

Place Temperature

Stations

Nearby Weather Stations

Station Location Temp. Windchill Dew Point Humidity Wind Precip. Elev Updated Type